createdAt,value
2022-08-31T00:02:28.776Z,51.64
2022-08-31T00:04:57.566Z,51.21
2022-08-31T00:07:27.494Z,51.19
2022-08-31T00:09:55.070Z,50.76
2022-08-31T00:12:22.753Z,49.82
2022-08-31T00:14:51.544Z,50.57
2022-08-31T00:17:18.993Z,51.13
2022-08-31T00:19:46.621Z,51.39
2022-08-31T00:22:14.406Z,51.83
2022-08-31T00:24:42.481Z,51.66
2022-08-31T00:27:10.170Z,51.66
2022-08-31T00:29:37.550Z,52.23
2022-08-31T00:32:05.140Z,52.49
2022-08-31T00:34:32.845Z,52.67
2022-08-31T00:37:01.038Z,51.85
2022-08-31T00:39:28.504Z,52.25
2022-08-31T00:41:56.425Z,52.71
2022-08-31T00:44:23.816Z,52.73
2022-08-31T00:46:51.230Z,52.20
2022-08-31T00:49:30.017Z,52.02
2022-08-31T00:52:25.380Z,53.08
2022-08-31T00:54:53.848Z,53.74
2022-08-31T00:57:21.248Z,54.05
2022-08-31T01:00:02.544Z,54.28
2022-08-31T01:02:32.544Z,55.23
2022-08-31T01:04:59.966Z,55.18
2022-08-31T01:07:27.621Z,55.17
2022-08-31T01:09:55.829Z,56.12
2022-08-31T01:12:23.869Z,55.65
2022-08-31T01:14:51.694Z,54.69
2022-08-31T01:20:23.038Z,55.28
2022-08-31T01:23:23.466Z,55.81
2022-08-31T01:25:51.246Z,55.23
2022-08-31T01:28:18.929Z,55.99
2022-08-31T01:30:58.145Z,55.85
2022-08-31T01:33:25.879Z,55.45
2022-08-31T01:35:53.257Z,55.57
2022-08-31T01:38:20.622Z,55.29
2022-08-31T01:40:56.404Z,56.26
2022-08-31T01:43:24.244Z,55.78
2022-08-31T01:45:51.898Z,55.99
2022-08-31T01:48:20.807Z,55.38
2022-08-31T01:50:48.216Z,54.94
2022-08-31T01:53:16.304Z,54.80
2022-08-31T01:55:44.004Z,55.05
2022-08-31T01:58:11.379Z,55.50
2022-08-31T02:00:39.678Z,55.40
2022-08-31T02:03:08.051Z,55.83
2022-08-31T02:05:36.434Z,56.05
2022-08-31T02:08:05.376Z,55.40
2022-08-31T02:10:33.098Z,55.51
2022-08-31T02:13:00.472Z,54.82
2022-08-31T02:15:29.920Z,54.15
2022-08-31T02:17:57.626Z,55.25
2022-08-31T02:20:25.084Z,55.02
2022-08-31T02:22:52.609Z,56.53
2022-08-31T02:25:20.288Z,56.48
2022-08-31T02:27:47.638Z,56.08
2022-08-31T02:30:16.918Z,56.00
2022-08-31T02:32:44.584Z,55.33
2022-08-31T02:35:12.271Z,55.31
2022-08-31T02:37:39.682Z,54.94
2022-08-31T02:40:12.157Z,54.54
2022-08-31T02:42:52.354Z,54.46
2022-08-31T02:45:22.201Z,54.71
2022-08-31T02:47:50.016Z,55.05
2022-08-31T02:50:18.081Z,54.19
2022-08-31T02:52:46.770Z,54.83
2022-08-31T02:55:14.399Z,54.75
2022-08-31T02:57:42.117Z,53.97
2022-08-31T03:00:11.281Z,54.25
2022-08-31T03:02:39.302Z,53.89
2022-08-31T03:05:08.137Z,55.33
2022-08-31T03:07:37.454Z,57.06
2022-08-31T03:10:05.868Z,58.71
2022-08-31T03:12:33.264Z,58.01
2022-08-31T03:15:00.938Z,56.86
2022-08-31T03:17:28.410Z,56.34
2022-08-31T03:20:01.067Z,56.02
2022-08-31T03:22:28.963Z,56.32
2022-08-31T03:24:56.413Z,57.00
2022-08-31T03:27:24.712Z,56.96
2022-08-31T03:29:52.781Z,56.39
2022-08-31T03:32:20.242Z,56.21
2022-08-31T03:34:48.136Z,56.63
2022-08-31T03:37:15.786Z,56.83
2022-08-31T03:39:43.564Z,56.75
2022-08-31T03:42:11.411Z,56.12
2022-08-31T03:44:39.272Z,55.90
2022-08-31T03:47:08.148Z,55.60
2022-08-31T03:49:36.509Z,54.35
2022-08-31T03:52:04.594Z,54.71
2022-08-31T03:54:32.564Z,55.10
2022-08-31T03:56:59.980Z,54.40
2022-08-31T03:59:27.705Z,54.37
2022-08-31T04:01:58.442Z,54.74
2022-08-31T04:04:42.450Z,55.71
2022-08-31T04:07:12.340Z,56.59
2022-08-31T04:09:42.305Z,59.32
2022-08-31T04:12:18.866Z,62.54
2022-08-31T04:14:47.435Z,64.38
2022-08-31T04:17:22.796Z,65.38
2022-08-31T04:19:51.826Z,65.59
2022-08-31T04:22:23.373Z,66.09
2022-08-31T04:24:53.700Z,65.32
2022-08-31T04:27:21.096Z,65.13
2022-08-31T04:29:48.691Z,65.95
2022-08-31T04:32:16.986Z,62.85
2022-08-31T04:34:44.475Z,58.54
2022-08-31T04:37:14.598Z,57.54
2022-08-31T04:39:50.507Z,56.50
2022-08-31T04:42:18.709Z,56.81
2022-08-31T04:44:46.588Z,56.44
2022-08-31T04:47:13.997Z,55.84
2022-08-31T04:49:41.542Z,56.01
2022-08-31T04:52:09.357Z,55.53
2022-08-31T04:54:36.759Z,54.99
2022-08-31T04:57:04.235Z,54.95
2022-08-31T04:59:32.036Z,55.10
2022-08-31T05:02:00.789Z,54.62
2022-08-31T05:04:29.172Z,53.87
2022-08-31T05:06:57.032Z,53.99
2022-08-31T05:09:24.450Z,56.96
2022-08-31T05:11:52.815Z,56.27
2022-08-31T05:14:22.071Z,57.02
2022-08-31T05:16:50.964Z,54.83
2022-08-31T05:19:18.792Z,53.56
2022-08-31T05:21:46.473Z,55.18
2022-08-31T05:24:18.484Z,53.28
2022-08-31T05:26:48.846Z,52.63
2022-08-31T05:29:18.016Z,50.57
2022-08-31T05:31:50.196Z,49.27
2022-08-31T05:34:19.591Z,50.07
2022-08-31T05:36:53.589Z,48.90
2022-08-31T05:39:21.004Z,47.95
2022-08-31T05:41:48.764Z,47.15
2022-08-31T05:44:16.628Z,46.91
2022-08-31T05:46:44.399Z,47.49
2022-08-31T05:49:12.234Z,46.16
2022-08-31T05:51:39.710Z,47.56
2022-08-31T05:54:07.834Z,46.75
2022-08-31T05:56:35.683Z,48.19
2022-08-31T05:59:03.226Z,47.43
2022-08-31T06:01:33.731Z,45.57
2022-08-31T06:04:02.565Z,45.36
2022-08-31T06:06:30.065Z,47.29
2022-08-31T06:08:57.614Z,47.56
2022-08-31T06:11:27.466Z,47.71
2022-08-31T06:13:56.388Z,49.05
2022-08-31T06:16:24.581Z,48.79
2022-08-31T06:18:53.697Z,47.79
2022-08-31T06:21:26.952Z,50.06
2022-08-31T06:23:57.153Z,47.55
2022-08-31T06:26:25.625Z,47.16
2022-08-31T06:28:54.223Z,48.79
2022-08-31T06:31:27.797Z,47.30
2022-08-31T06:33:55.975Z,47.36
2022-08-31T06:36:29.922Z,46.81
2022-08-31T06:38:59.334Z,46.17
2022-08-31T06:41:37.958Z,45.85
2022-08-31T06:44:11.117Z,44.71
2022-08-31T06:46:39.386Z,45.86
2022-08-31T06:49:09.689Z,47.54
2022-08-31T06:51:48.781Z,45.18
2022-08-31T06:54:33.179Z,44.82
2022-08-31T06:57:05.765Z,42.85
2022-08-31T06:59:34.168Z,42.41
2022-08-31T07:02:04.242Z,43.10
2022-08-31T07:04:35.914Z,42.53
2022-08-31T07:07:05.039Z,43.56
2022-08-31T07:09:32.620Z,44.23
2022-08-31T07:12:00.217Z,41.85
2022-08-31T07:14:28.016Z,43.96
2022-08-31T07:16:56.680Z,44.37
2022-08-31T07:19:24.723Z,43.27
2022-08-31T07:21:54.558Z,42.67
2022-08-31T07:24:24.552Z,42.96
2022-08-31T07:26:54.492Z,44.86
2022-08-31T07:29:22.698Z,46.31
2022-08-31T07:31:50.537Z,44.21
2022-08-31T07:34:26.702Z,43.03
2022-08-31T07:37:16.315Z,43.04
2022-08-31T07:40:07.101Z,42.36
2022-08-31T07:42:37.511Z,42.68
2022-08-31T07:45:12.288Z,42.92
2022-08-31T07:47:46.099Z,41.01
2022-08-31T07:50:15.736Z,40.55
2022-08-31T07:52:47.776Z,41.19
2022-08-31T07:55:17.836Z,41.36
2022-08-31T07:57:47.270Z,40.04
2022-08-31T08:00:21.365Z,40.22
2022-08-31T08:02:52.794Z,40.03
2022-08-31T08:05:26.697Z,41.04
2022-08-31T08:07:57.841Z,43.21
2022-08-31T08:10:26.988Z,41.66
2022-08-31T08:13:00.802Z,39.93
2022-08-31T08:15:33.849Z,39.23
2022-08-31T08:18:05.149Z,40.22
2022-08-31T08:20:37.543Z,40.62
2022-08-31T08:23:14.646Z,39.91
2022-08-31T08:25:44.340Z,38.15
2022-08-31T08:31:05.921Z,37.65
2022-08-31T08:33:35.071Z,39.19
2022-08-31T08:36:07.508Z,40.32
2022-08-31T08:38:38.961Z,37.07
2022-08-31T08:41:12.759Z,36.30
2022-08-31T08:43:43.860Z,37.12
2022-08-31T08:46:33.475Z,37.54
2022-08-31T08:49:08.106Z,36.69
2022-08-31T08:51:37.000Z,36.50
2022-08-31T08:54:09.986Z,38.00
2022-08-31T08:56:47.119Z,36.73
2022-08-31T08:59:19.275Z,39.37
2022-08-31T09:01:52.497Z,38.53
2022-08-31T09:04:32.820Z,37.49
2022-08-31T09:07:24.075Z,37.37
2022-08-31T09:10:27.817Z,36.90
2022-08-31T09:13:14.202Z,31.43
2022-08-31T09:16:26.115Z,27.39
2022-08-31T09:19:00.169Z,28.24
2022-08-31T09:21:37.050Z,26.30
2022-08-31T09:24:07.525Z,25.39
2022-08-31T09:27:17.880Z,27.89
2022-08-31T09:30:06.219Z,27.90
2022-08-31T09:32:35.637Z,29.43
2022-08-31T09:35:09.247Z,24.26
2022-08-31T09:37:40.423Z,24.30
2022-08-31T09:40:16.967Z,20.30
2022-08-31T09:43:23.861Z,20.25
2022-08-31T09:45:54.037Z,17.62
2022-08-31T09:48:44.897Z,15.71
2022-08-31T09:51:36.336Z,15.68
2022-08-31T09:54:26.357Z,16.54
2022-08-31T09:56:57.532Z,20.04
2022-08-31T09:59:38.581Z,21.08
2022-08-31T10:02:28.732Z,19.61
2022-08-31T10:05:06.569Z,17.88
2022-08-31T10:07:48.980Z,20.03
2022-08-31T10:10:31.461Z,22.01
2022-08-31T10:13:03.802Z,17.86
2022-08-31T10:15:35.939Z,16.61
2022-08-31T10:18:11.873Z,17.84
2022-08-31T10:21:07.773Z,18.72
2022-08-31T10:23:54.137Z,17.70
2022-08-31T10:26:36.059Z,22.20
2022-08-31T10:29:08.012Z,21.36
2022-08-31T10:31:42.505Z,22.64
2022-08-31T10:34:43.821Z,22.53
2022-08-31T10:37:18.925Z,25.75
2022-08-31T10:39:51.805Z,24.33
2022-08-31T10:42:26.142Z,27.05
2022-08-31T10:45:14.233Z,28.13
2022-08-31T10:47:47.404Z,28.54
2022-08-31T10:50:23.271Z,28.40
2022-08-31T10:52:53.346Z,30.36
2022-08-31T10:55:33.045Z,31.70
2022-08-31T10:58:03.502Z,33.28
2022-08-31T11:00:53.265Z,31.67
2022-08-31T11:03:39.203Z,31.32
2022-08-31T11:06:38.486Z,30.43
2022-08-31T11:09:20.083Z,30.64
2022-08-31T11:11:48.629Z,30.11
2022-08-31T11:14:29.037Z,30.78
2022-08-31T11:17:11.985Z,29.05
2022-08-31T11:20:11.266Z,28.67
2022-08-31T11:23:05.669Z,28.86
2022-08-31T11:25:47.434Z,29.55
2022-08-31T11:28:34.647Z,28.42
2022-08-31T11:31:06.153Z,29.60
2022-08-31T11:33:33.631Z,29.34
2022-08-31T11:36:10.231Z,30.66
2022-08-31T11:39:03.107Z,28.98
2022-08-31T11:41:46.903Z,29.52
2022-08-31T11:44:29.870Z,28.79
2022-08-31T11:47:29.268Z,29.94
2022-08-31T11:50:03.950Z,28.82
2022-08-31T11:52:43.015Z,28.22
2022-08-31T11:55:24.069Z,28.94
2022-08-31T11:58:39.659Z,30.91
2022-08-31T12:01:18.944Z,30.16
2022-08-31T12:03:51.498Z,29.68
2022-08-31T12:06:28.135Z,31.25
2022-08-31T12:09:19.563Z,31.15
2022-08-31T12:12:06.620Z,29.79
2022-08-31T12:14:50.211Z,29.76
2022-08-31T12:17:46.810Z,28.71
2022-08-31T12:20:20.398Z,31.63
2022-08-31T12:23:30.586Z,31.93
2022-08-31T12:26:04.825Z,30.66
2022-08-31T12:28:36.345Z,29.67
2022-08-31T12:31:06.128Z,29.28
2022-08-31T12:33:33.539Z,28.69
2022-08-31T12:36:18.017Z,30.01
2022-08-31T12:38:46.212Z,29.94
2022-08-31T12:41:13.641Z,29.20
2022-08-31T12:43:46.103Z,28.70
2022-08-31T12:46:24.092Z,29.18
2022-08-31T12:49:07.640Z,29.10
2022-08-31T12:52:03.429Z,29.42
2022-08-31T12:54:42.893Z,29.51
2022-08-31T12:57:29.357Z,29.96
2022-08-31T13:00:26.408Z,29.39
2022-08-31T13:02:57.433Z,31.77
2022-08-31T13:05:26.312Z,30.39
2022-08-31T13:07:53.973Z,29.55
2022-08-31T13:10:28.565Z,28.95
2022-08-31T13:13:01.876Z,29.97
2022-08-31T13:15:39.676Z,29.96
2022-08-31T13:18:19.739Z,29.34
2022-08-31T13:20:47.210Z,29.41
2022-08-31T13:23:21.161Z,28.75
2022-08-31T13:26:00.193Z,30.19
2022-08-31T13:28:30.486Z,28.00
2022-08-31T13:31:05.767Z,30.21
2022-08-31T13:33:35.188Z,28.54
2022-08-31T13:36:34.023Z,28.82
2022-08-31T13:39:11.673Z,27.79
2022-08-31T13:41:54.513Z,26.74
2022-08-31T13:44:23.401Z,26.56
2022-08-31T13:47:01.098Z,28.49
2022-08-31T13:49:38.878Z,29.67
2022-08-31T13:52:13.985Z,28.03
2022-08-31T13:54:41.674Z,28.31
2022-08-31T13:57:20.240Z,29.45
2022-08-31T13:59:48.468Z,30.07
2022-08-31T14:02:16.350Z,29.34
2022-08-31T14:04:44.209Z,28.10
2022-08-31T14:07:21.506Z,27.75
2022-08-31T14:10:08.844Z,28.92
2022-08-31T14:12:46.117Z,28.00
2022-08-31T14:15:17.875Z,27.69
2022-08-31T14:21:16.725Z,27.22
2022-08-31T14:23:39.890Z,26.63
2022-08-31T14:26:12.373Z,26.24
2022-08-31T14:28:46.106Z,27.41
2022-08-31T14:31:22.898Z,27.47
2022-08-31T14:34:08.022Z,26.86
2022-08-31T14:36:54.920Z,29.66
2022-08-31T14:39:31.290Z,29.46
2022-08-31T14:42:06.070Z,29.45
2022-08-31T14:44:36.603Z,30.65
2022-08-31T14:47:04.298Z,29.64
2022-08-31T14:49:36.346Z,29.58
2022-08-31T14:52:06.287Z,28.92
2022-08-31T14:54:37.785Z,28.46
2022-08-31T14:57:25.167Z,28.49
2022-08-31T14:59:57.581Z,30.88
2022-08-31T15:02:29.131Z,31.79
2022-08-31T15:05:06.626Z,29.53
2022-08-31T15:07:36.300Z,30.94
2022-08-31T15:10:04.021Z,30.85
2022-08-31T15:12:31.394Z,30.08
2022-08-31T15:14:59.948Z,31.19
2022-08-31T15:17:28.365Z,32.61
2022-08-31T15:19:56.029Z,32.16
2022-08-31T15:22:26.178Z,30.82
2022-08-31T15:24:53.869Z,30.48
2022-08-31T15:27:22.399Z,30.19
2022-08-31T15:29:50.931Z,30.73
2022-08-31T15:32:18.644Z,30.79
2022-08-31T15:34:57.780Z,31.18
2022-08-31T15:37:30.810Z,30.55
2022-08-31T15:40:03.752Z,30.14
2022-08-31T15:42:34.076Z,30.29
2022-08-31T15:45:01.453Z,29.62
2022-08-31T15:47:50.460Z,30.90
2022-08-31T15:50:19.684Z,30.76
2022-08-31T15:52:49.741Z,31.53
2022-08-31T15:55:23.192Z,31.29
2022-08-31T15:57:54.307Z,31.25
2022-08-31T16:02:23.865Z,31.06
2022-08-31T16:04:51.948Z,31.06
2022-08-31T16:07:22.611Z,31.70
2022-08-31T16:09:50.008Z,31.55
2022-08-31T16:12:18.808Z,32.20
2022-08-31T16:14:46.160Z,32.29
2022-08-31T16:17:19.235Z,31.71
2022-08-31T16:19:48.049Z,32.02
2022-08-31T16:22:15.986Z,31.84
2022-08-31T16:24:44.642Z,32.99
2022-08-31T16:27:16.310Z,32.13
2022-08-31T16:29:44.522Z,31.76
2022-08-31T16:32:12.182Z,31.59
2022-08-31T16:34:39.696Z,32.08
2022-08-31T16:37:07.673Z,32.77
2022-08-31T16:39:39.283Z,32.30
2022-08-31T16:42:07.234Z,32.78
2022-08-31T16:44:36.806Z,32.88
2022-08-31T16:47:05.519Z,32.59
2022-08-31T16:49:36.531Z,34.46
2022-08-31T16:52:06.322Z,34.73
2022-08-31T16:54:34.029Z,33.37
2022-08-31T16:57:01.396Z,35.38
2022-08-31T16:59:29.277Z,35.46
2022-08-31T17:01:56.725Z,36.38
2022-08-31T17:04:48.547Z,36.62
2022-08-31T17:07:13.937Z,36.06
2022-08-31T17:09:41.336Z,38.03
2022-08-31T17:12:12.129Z,36.67
2022-08-31T17:14:46.928Z,36.38
2022-08-31T17:17:16.243Z,36.54
2022-08-31T17:19:46.740Z,36.35
2022-08-31T17:22:23.357Z,36.05
2022-08-31T17:24:57.411Z,36.81
2022-08-31T17:27:25.302Z,36.24
2022-08-31T17:29:54.729Z,36.77
2022-08-31T17:32:24.151Z,36.97
2022-08-31T17:34:52.003Z,38.77
2022-08-31T17:37:25.937Z,37.52
2022-08-31T17:39:53.837Z,37.16
2022-08-31T17:42:21.950Z,37.32
2022-08-31T17:44:52.129Z,37.33
2022-08-31T17:47:20.850Z,37.03
2022-08-31T17:49:50.557Z,36.86
2022-08-31T17:52:20.414Z,37.47
2022-08-31T17:54:48.486Z,37.46
2022-08-31T17:57:16.539Z,36.72
2022-08-31T17:59:46.506Z,37.29
2022-08-31T18:02:16.653Z,38.01
2022-08-31T18:04:44.372Z,36.29
2022-08-31T18:07:11.935Z,36.48
2022-08-31T18:09:40.975Z,37.06
2022-08-31T18:12:08.896Z,37.26
2022-08-31T18:14:38.062Z,37.20
2022-08-31T18:17:07.094Z,38.18
2022-08-31T18:19:34.751Z,38.03
2022-08-31T18:22:02.242Z,37.80
2022-08-31T18:24:34.113Z,39.57
2022-08-31T18:27:04.086Z,40.24
2022-08-31T18:29:33.238Z,39.96
2022-08-31T18:32:04.181Z,40.22
2022-08-31T18:34:33.447Z,39.31
2022-08-31T18:37:01.283Z,39.32
2022-08-31T18:39:51.039Z,39.25
2022-08-31T18:42:39.282Z,39.16
2022-08-31T18:45:16.633Z,39.49
2022-08-31T18:48:23.874Z,40.07
2022-08-31T18:50:44.446Z,40.09
2022-08-31T18:53:15.184Z,40.29
2022-08-31T18:55:43.873Z,40.63
2022-08-31T18:58:11.318Z,40.79
2022-08-31T19:00:40.217Z,40.75
2022-08-31T19:03:07.868Z,40.29
2022-08-31T19:05:38.472Z,40.33
2022-08-31T19:08:06.498Z,41.89
2022-08-31T19:10:34.754Z,39.77
2022-08-31T19:13:05.443Z,40.10
2022-08-31T19:15:39.743Z,40.79
2022-08-31T19:18:08.280Z,38.86
2022-08-31T19:20:36.392Z,38.18
2022-08-31T19:23:03.918Z,37.46
2022-08-31T19:25:34.976Z,39.37
2022-08-31T19:28:07.785Z,38.80
2022-08-31T19:30:35.588Z,39.42
2022-08-31T19:33:07.451Z,38.87
2022-08-31T19:35:36.157Z,40.83
2022-08-31T19:38:04.579Z,37.44
2022-08-31T19:40:37.407Z,37.08
2022-08-31T19:45:54.440Z,37.13
2022-08-31T19:48:23.410Z,36.47
2022-08-31T19:50:51.785Z,37.12
2022-08-31T19:53:22.448Z,37.36
2022-08-31T19:55:51.280Z,37.47
2022-08-31T19:58:25.252Z,38.84
2022-08-31T20:01:04.281Z,38.33
2022-08-31T20:03:34.196Z,39.19
2022-08-31T20:06:08.235Z,38.80
2022-08-31T20:08:36.289Z,39.21
2022-08-31T20:11:03.812Z,39.53
2022-08-31T20:13:31.536Z,36.86
2022-08-31T20:15:59.231Z,38.10
2022-08-31T20:18:28.173Z,38.87
2022-08-31T20:20:56.715Z,40.82
2022-08-31T20:23:24.509Z,38.96
2022-08-31T20:25:53.182Z,38.03
2022-08-31T20:28:26.309Z,38.75
2022-08-31T20:30:59.003Z,38.02
2022-08-31T20:33:27.076Z,38.53
2022-08-31T20:35:54.749Z,39.40
2022-08-31T20:38:22.151Z,40.65
2022-08-31T20:40:52.718Z,40.60
2022-08-31T20:43:21.221Z,40.14
2022-08-31T20:45:48.935Z,41.22
2022-08-31T20:48:35.115Z,38.81
2022-08-31T20:51:16.300Z,39.94
2022-08-31T20:53:44.390Z,39.34
2022-08-31T20:56:16.942Z,38.72
2022-08-31T20:58:45.909Z,38.61
2022-08-31T21:01:14.149Z,39.37
2022-08-31T21:03:41.828Z,39.14
2022-08-31T21:06:11.295Z,40.21
2022-08-31T21:08:39.796Z,40.05
2022-08-31T21:11:14.058Z,39.68
2022-08-31T21:13:42.826Z,38.94
2022-08-31T21:16:10.476Z,39.72
2022-08-31T21:18:38.786Z,38.24
2022-08-31T21:21:08.814Z,38.03
2022-08-31T21:23:36.746Z,39.82
2022-08-31T21:26:05.011Z,40.49
2022-08-31T21:28:32.909Z,40.53
2022-08-31T21:31:18.569Z,39.28
2022-08-31T21:33:59.440Z,39.89
2022-08-31T21:36:26.847Z,41.81
2022-08-31T21:38:54.981Z,42.92
2022-08-31T21:41:24.164Z,42.27
2022-08-31T21:43:51.530Z,41.90
2022-08-31T21:46:25.027Z,42.01
2022-08-31T21:48:54.762Z,42.02
2022-08-31T21:51:23.959Z,42.51
2022-08-31T21:53:53.017Z,40.50
2022-08-31T21:56:21.482Z,41.51
2022-08-31T21:58:49.432Z,41.39
2022-08-31T22:01:19.940Z,41.93
2022-08-31T22:03:48.160Z,40.54
2022-08-31T22:06:22.176Z,41.54
2022-08-31T22:09:00.208Z,42.38
2022-08-31T22:11:29.567Z,43.55
2022-08-31T22:13:57.883Z,42.19
2022-08-31T22:16:25.518Z,43.09
2022-08-31T22:19:02.817Z,41.14
2022-08-31T22:21:33.117Z,41.60
2022-08-31T22:24:06.641Z,41.71
2022-08-31T22:26:37.491Z,41.11
2022-08-31T22:29:06.148Z,41.33
2022-08-31T22:31:36.627Z,42.21
2022-08-31T22:34:05.312Z,42.66
2022-08-31T22:36:32.869Z,42.46
2022-08-31T22:39:05.772Z,43.69
2022-08-31T22:41:33.657Z,41.46
2022-08-31T22:44:01.158Z,43.75
2022-08-31T22:46:28.633Z,43.42
2022-08-31T22:48:56.367Z,45.56
2022-08-31T22:51:23.710Z,47.02
2022-08-31T22:53:51.700Z,45.16
2022-08-31T22:56:25.970Z,46.85
2022-08-31T22:58:55.150Z,47.35
2022-08-31T23:01:26.774Z,51.37
2022-08-31T23:03:55.133Z,50.56
2022-08-31T23:06:23.435Z,53.71
2022-08-31T23:08:51.916Z,55.59
2022-08-31T23:11:19.701Z,58.29
2022-08-31T23:13:55.488Z,60.30
2022-08-31T23:16:28.386Z,60.89
2022-08-31T23:18:59.076Z,59.96
2022-08-31T23:21:27.606Z,62.37
2022-08-31T23:23:55.543Z,61.71
2022-08-31T23:26:25.331Z,62.36
2022-08-31T23:28:53.002Z,59.80
2022-08-31T23:31:21.910Z,61.44
2022-08-31T23:33:53.176Z,62.61
2022-08-31T23:36:25.972Z,61.35
2022-08-31T23:38:55.039Z,62.18
2022-08-31T23:41:25.856Z,63.69
2022-08-31T23:43:53.881Z,64.05
2022-08-31T23:46:23.828Z,64.54
2022-08-31T23:48:52.342Z,65.15
2022-08-31T23:51:20.897Z,63.51
2022-08-31T23:53:55.101Z,63.01
2022-08-31T23:56:30.297Z,64.23
2022-08-31T23:58:58.914Z,64.64
